Time;durP1;ratioP1;P1;durP2;ratioP2;P2;SDS_P1;SDS_P2;PMS_P1;PMS_P2;Temp;Humidity;BMP_temperature;BMP_pressure;BME280_temperature;BME280_humidity;BME280_pressure;Samples;Min_cycle;Max_cycle;Signal;HPM_P1;HPM_P2
2022/03/11 00:02:13;;;;;;;23.47;12.97;;;2.00;95.90;;;;;;4995610;28;20249;-40
2022/03/11 00:04:39;;;;;;;23.63;12.43;;;2.10;96.10;;;;;;4995858;28;20186;-41
2022/03/11 00:07:04;;;;;;;21.77;11.90;;;2.00;96.00;;;;;;5012144;28;20202;-39
2022/03/11 00:09:30;;;;;;;22.93;12.30;;;1.90;96.10;;;;;;4995544;28;20231;-40
2022/03/11 00:11:57;;;;;;;19.80;11.00;;;1.90;96.10;;;;;;5012252;28;20183;-37
2022/03/11 00:14:24;;;;;;;22.90;12.73;;;1.90;96.20;;;;;;5013152;28;20185;-38
2022/03/11 00:16:49;;;;;;;24.30;13.33;;;1.90;96.20;;;;;;4995620;28;20216;-37
2022/03/11 00:19:16;;;;;;;25.73;13.10;;;1.80;96.50;;;;;;5013057;28;20221;-39
2022/03/11 00:21:42;;;;;;;31.07;17.13;;;1.80;96.50;;;;;;4995461;28;20210;-40
2022/03/11 00:24:08;;;;;;;30.13;16.37;;;1.60;96.20;;;;;;4995542;28;20177;-37
2022/03/11 00:26:34;;;;;;;23.90;14.37;;;1.50;96.30;;;;;;4995600;28;20208;-37
2022/03/11 00:29:01;;;;;;;20.37;12.57;;;1.40;96.70;;;;;;5011507;28;20273;-39
2022/03/11 00:31:28;;;;;;;20.87;13.00;;;1.40;97.10;;;;;;5012946;28;20260;-36
2022/03/11 00:33:54;;;;;;;20.40;11.83;;;1.40;97.10;;;;;;4995481;28;20223;-38
2022/03/11 00:36:21;;;;;;;19.77;12.50;;;1.50;97.00;;;;;;5011473;28;20301;-40
2022/03/11 00:38:46;;;;;;;22.27;11.20;;;1.50;97.00;;;;;;4995537;28;20250;-36
2022/03/11 00:41:12;;;;;;;23.70;11.83;;;1.30;97.40;;;;;;4995220;28;20183;-37
2022/03/11 00:43:38;;;;;;;17.20;10.93;;;0.80;98.00;;;;;;4995005;28;20216;-40
2022/03/11 00:46:04;;;;;;;18.07;10.77;;;0.80;98.10;;;;;;4994098;28;20666;-39
2022/03/11 00:48:31;;;;;;;20.23;10.50;;;0.90;98.10;;;;;;4995032;28;20191;-38
2022/03/11 00:51:00;;;;;;;16.87;10.30;;;1.10;97.60;;;;;;4995042;28;20266;-36
2022/03/11 00:53:27;;;;;;;15.27;9.87;;;1.20;97.80;;;;;;4995193;28;20190;-39
2022/03/11 00:55:54;;;;;;;19.13;11.30;;;1.20;97.70;;;;;;4994866;28;20204;-39
2022/03/11 00:58:21;;;;;;;21.77;11.63;;;1.10;97.60;;;;;;4994858;28;20231;-39
2022/03/11 01:00:46;;;;;;;18.60;9.93;;;1.00;97.50;;;;;;5012520;28;20272;-40
2022/03/11 01:03:12;;;;;;;19.90;10.47;;;0.90;97.50;;;;;;5010972;28;20304;-39
2022/03/11 01:05:38;;;;;;;19.13;10.83;;;0.90;97.70;;;;;;5011248;28;20224;-39
2022/03/11 01:08:04;;;;;;;17.00;10.73;;;0.90;97.90;;;;;;5011148;28;20268;-39
2022/03/11 01:10:31;;;;;;;18.13;10.40;;;1.00;97.70;;;;;;5010709;28;20181;-39
2022/03/11 01:12:57;;;;;;;18.73;11.50;;;0.90;97.50;;;;;;5012157;28;20175;-41
2022/03/11 01:15:23;;;;;;;17.50;10.80;;;0.90;97.90;;;;;;4994406;28;20226;-40
2022/03/11 01:17:48;;;;;;;18.13;10.07;;;0.60;98.00;;;;;;4994433;28;20181;-38
2022/03/11 01:20:14;;;;;;;15.30;9.83;;;0.60;98.30;;;;;;5012063;28;20185;-39
2022/03/11 01:22:41;;;;;;;17.27;9.80;;;0.60;98.40;;;;;;4994581;28;20237;-38
2022/03/11 01:25:07;;;;;;;16.87;9.60;;;0.70;98.40;;;;;;5010892;28;20273;-37
2022/03/11 01:27:34;;;;;;;16.93;9.40;;;0.80;98.40;;;;;;5010581;28;20196;-39
2022/03/11 01:29:59;;;;;;;16.70;9.93;;;0.80;98.20;;;;;;4994047;28;20179;-37
2022/03/11 01:32:25;;;;;;;16.83;8.97;;;0.80;97.70;;;;;;4994607;28;20184;-37
2022/03/11 01:34:51;;;;;;;15.17;9.23;;;0.80;97.70;;;;;;4994389;28;20561;-37
2022/03/11 01:37:17;;;;;;;16.17;8.43;;;0.80;98.30;;;;;;4994115;28;20230;-36
2022/03/11 01:39:43;;;;;;;14.13;8.57;;;0.60;98.00;;;;;;5009989;28;20188;-37
2022/03/11 01:42:10;;;;;;;13.27;8.27;;;0.60;98.30;;;;;;5010350;28;20273;-37
2022/03/11 01:44:36;;;;;;;15.90;8.77;;;0.60;98.30;;;;;;5010528;28;20183;-37
2022/03/11 01:47:02;;;;;;;13.90;8.23;;;0.60;98.60;;;;;;5010304;28;20208;-37
2022/03/11 01:49:28;;;;;;;16.70;8.33;;;0.50;98.50;;;;;;4993712;28;20314;-40
2022/03/11 01:51:54;;;;;;;13.77;8.83;;;0.50;98.40;;;;;;5010376;28;20269;-39
2022/03/11 01:54:20;;;;;;;13.43;7.90;;;0.30;97.70;;;;;;4993913;28;20685;-37
2022/03/11 01:56:47;;;;;;;14.47;8.23;;;0.20;97.80;;;;;;5010144;28;20214;-39
2022/03/11 01:59:12;;;;;;;13.93;8.20;;;0.10;98.10;;;;;;5010193;28;20640;-38
2022/03/11 02:01:39;;;;;;;14.10;7.83;;;0.00;98.70;;;;;;5010267;28;20202;-39
2022/03/11 02:04:05;;;;;;;12.50;7.53;;;-0.10;98.80;;;;;;5010195;28;20175;-39
2022/03/11 02:06:31;;;;;;;11.97;7.77;;;-0.10;99.10;;;;;;4993866;28;20198;-37
2022/03/11 02:08:59;;;;;;;12.50;7.57;;;0.00;99.20;;;;;;4993446;28;20261;-37
2022/03/11 02:11:25;;;;;;;13.43;8.43;;;0.10;99.10;;;;;;4993585;28;20225;-36
2022/03/11 02:13:59;;;;;;;15.97;8.20;;;0.10;99.20;;;;;;4993832;28;20187;-38
2022/03/11 02:16:30;;;;;;;15.87;8.30;;;0.10;99.30;;;;;;4993856;28;20286;-37
2022/03/11 02:18:57;;;;;;;14.17;8.13;;;0.20;99.30;;;;;;4993778;28;20178;-37
2022/03/11 02:21:26;;;;;;;14.70;7.80;;;0.20;99.30;;;;;;4993641;28;20176;-39
2022/03/11 02:23:57;;;;;;;14.20;8.23;;;0.10;99.30;;;;;;4993652;28;20191;-39
2022/03/11 02:26:26;;;;;;;13.33;8.30;;;0.20;99.30;;;;;;4993741;28;20229;-38
2022/03/11 02:28:53;;;;;;;12.57;7.63;;;0.20;99.30;;;;;;5009647;28;20548;-38
2022/03/11 02:31:21;;;;;;;15.27;7.63;;;0.10;99.20;;;;;;4993661;28;20287;-36
2022/03/11 02:33:47;;;;;;;12.20;7.53;;;-0.20;99.00;;;;;;4993535;28;20187;-36
2022/03/11 02:36:13;;;;;;;13.50;7.77;;;-0.30;98.90;;;;;;4993241;28;20223;-38
2022/03/11 02:38:39;;;;;;;13.60;8.30;;;-0.40;98.90;;;;;;5026315;28;20171;-38
2022/03/11 02:41:05;;;;;;;13.47;7.53;;;-0.50;99.30;;;;;;5009461;28;20609;-35
2022/03/11 02:43:31;;;;;;;13.27;8.83;;;-0.60;99.70;;;;;;4993356;28;20219;-35
2022/03/11 02:45:57;;;;;;;13.40;7.60;;;-0.50;99.80;;;;;;5009757;28;20730;-38
2022/03/11 02:48:23;;;;;;;11.57;7.17;;;-0.50;99.60;;;;;;5009876;28;20175;-37
2022/03/11 02:50:49;;;;;;;13.67;8.20;;;-0.50;99.60;;;;;;4993161;28;20218;-39
2022/03/11 02:53:15;;;;;;;13.87;7.77;;;-0.50;99.90;;;;;;5009752;28;20676;-38
2022/03/11 02:55:42;;;;;;;17.70;9.10;;;-0.50;99.90;;;;;;5009815;28;20234;-39
2022/03/11 02:58:08;;;;;;;15.23;8.23;;;-0.50;99.90;;;;;;5009879;28;20191;-38
2022/03/11 03:00:34;;;;;;;13.63;7.90;;;-0.60;99.90;;;;;;5009456;28;20183;-38
2022/03/11 03:03:00;;;;;;;13.33;8.03;;;-0.60;99.90;;;;;;5026088;28;20206;-38
2022/03/11 03:05:25;;;;;;;11.93;7.97;;;-0.60;99.90;;;;;;5009854;28;20249;-38
2022/03/11 03:07:51;;;;;;;13.30;7.87;;;-0.50;99.90;;;;;;5009635;28;20203;-40
2022/03/11 03:10:17;;;;;;;13.83;7.93;;;-0.60;99.90;;;;;;5012701;28;20179;-38
2022/03/11 03:12:43;;;;;;;12.50;7.67;;;-0.40;99.90;;;;;;4997174;28;20191;-37
2022/03/11 03:15:09;;;;;;;13.03;7.40;;;-0.40;99.90;;;;;;4996844;28;20183;-38
2022/03/11 03:17:36;;;;;;;11.70;7.63;;;-0.40;99.90;;;;;;5013274;28;20247;-38
2022/03/11 03:20:05;;;;;;;15.77;8.20;;;-0.50;99.90;;;;;;5012059;28;20240;-38
2022/03/11 03:22:31;;;;;;;11.87;7.87;;;-0.60;99.90;;;;;;5012984;28;20219;-35
2022/03/11 03:24:57;;;;;;;13.37;7.67;;;-0.60;99.90;;;;;;4996702;28;20291;-38
2022/03/11 03:27:23;;;;;;;14.33;7.43;;;-0.60;99.90;;;;;;5012913;28;20241;-39
2022/03/11 03:29:49;;;;;;;13.17;7.47;;;-0.50;99.90;;;;;;4996477;28;20175;-38
2022/03/11 03:32:15;;;;;;;13.70;7.60;;;-0.60;99.90;;;;;;4996830;28;20233;-40
2022/03/11 03:34:40;;;;;;;14.77;7.50;;;-0.60;99.90;;;;;;5012724;28;20183;-36
2022/03/11 03:37:09;;;;;;;12.13;6.87;;;-0.60;99.90;;;;;;5012673;28;20238;-36
2022/03/11 03:39:40;;;;;;;11.93;7.30;;;-0.60;99.70;;;;;;5014062;28;20198;-36
2022/03/11 03:42:06;;;;;;;13.47;7.73;;;-0.70;99.90;;;;;;5012726;28;20215;-36
2022/03/11 03:44:32;;;;;;;12.73;7.47;;;-0.80;99.90;;;;;;5012808;28;20266;-35
2022/03/11 03:46:58;;;;;;;14.30;8.13;;;-1.00;99.90;;;;;;4996179;28;20207;-36
2022/03/11 03:49:25;;;;;;;13.97;7.80;;;-1.20;99.90;;;;;;4996118;28;20230;-37
2022/03/11 03:51:51;;;;;;;11.10;7.30;;;-1.40;99.90;;;;;;5013715;28;20183;-36
2022/03/11 03:54:18;;;;;;;15.03;7.63;;;-1.50;99.90;;;;;;5012729;28;20266;-38
2022/03/11 03:56:45;;;;;;;12.60;7.40;;;-1.50;99.90;;;;;;5012334;28;20206;-38
2022/03/11 03:59:12;;;;;;;14.13;7.77;;;-1.50;99.90;;;;;;5012062;28;20234;-41
2022/03/11 04:01:39;;;;;;;16.40;7.27;;;-1.60;99.90;;;;;;5012131;28;20195;-38
2022/03/11 04:04:06;;;;;;;12.30;7.40;;;-1.60;99.90;;;;;;5012407;28;20246;-38
2022/03/11 04:06:37;;;;;;;10.87;6.77;;;-1.50;99.90;;;;;;4995966;28;20199;-37
2022/03/11 04:09:05;;;;;;;11.53;7.43;;;-1.30;99.90;;;;;;4995843;28;20186;-33
2022/03/11 04:11:31;;;;;;;13.20;7.43;;;-1.20;99.90;;;;;;5013897;28;20619;-38
2022/03/11 04:13:58;;;;;;;9.93;6.07;;;-1.10;99.90;;;;;;5012200;28;20187;-36
2022/03/11 04:16:24;;;;;;;12.00;7.13;;;-1.10;99.90;;;;;;4995729;28;20261;-37
2022/03/11 04:18:50;;;;;;;12.80;7.07;;;-1.10;99.90;;;;;;4995560;28;20205;-34
2022/03/11 04:21:17;;;;;;;11.03;7.00;;;-1.00;99.90;;;;;;5012311;28;20262;-35
2022/03/11 04:23:45;;;;;;;12.43;7.07;;;-1.10;99.90;;;;;;4995732;28;20218;-36
2022/03/11 04:26:12;;;;;;;12.07;7.07;;;-1.10;99.90;;;;;;5011762;28;20192;-36
2022/03/11 04:28:38;;;;;;;12.83;7.03;;;-1.00;99.90;;;;;;5011530;28;20213;-37
2022/03/11 04:31:08;;;;;;;12.23;7.50;;;-1.10;99.90;;;;;;4995178;28;20545;-38
2022/03/11 04:33:35;;;;;;;10.07;6.97;;;-1.20;99.90;;;;;;4995340;28;20702;-35
2022/03/11 04:36:03;;;;;;;12.67;7.23;;;-1.30;99.90;;;;;;5012209;28;20215;-40
2022/03/11 04:38:33;;;;;;;12.73;8.23;;;-1.40;99.90;;;;;;5011790;28;20179;-37
2022/03/11 04:41:00;;;;;;;13.53;7.27;;;-1.40;99.90;;;;;;4995027;28;20187;-37
2022/03/11 04:43:27;;;;;;;12.67;6.90;;;-1.30;99.90;;;;;;5011601;28;20238;-40
2022/03/11 04:45:53;;;;;;;13.20;6.93;;;-1.30;99.90;;;;;;5011420;28;20206;-38
2022/03/11 04:48:19;;;;;;;12.43;6.87;;;-1.40;99.90;;;;;;5011611;28;20176;-38
2022/03/11 04:50:45;;;;;;;13.00;8.10;;;-1.40;99.90;;;;;;5011206;28;20186;-37
2022/03/11 04:53:11;;;;;;;13.87;7.83;;;-1.40;99.90;;;;;;4995159;28;20183;-40
2022/03/11 04:55:37;;;;;;;11.33;7.87;;;-1.50;99.90;;;;;;5011110;28;20211;-39
2022/03/11 04:58:03;;;;;;;12.13;8.00;;;-1.40;99.90;;;;;;5011651;28;20199;-39
2022/03/11 05:00:29;;;;;;;15.60;8.77;;;-1.40;99.90;;;;;;5010146;28;20179;-36
2022/03/11 05:02:55;;;;;;;15.40;8.83;;;-1.40;99.90;;;;;;4994781;28;20211;-40
2022/03/11 05:05:21;;;;;;;16.33;9.00;;;-1.40;99.90;;;;;;5011095;28;20179;-40
2022/03/11 05:07:47;;;;;;;19.97;10.17;;;-1.40;99.90;;;;;;5010987;28;20191;-40
2022/03/11 05:10:16;;;;;;;18.27;9.53;;;-1.40;99.90;;;;;;5027005;28;20190;-38
2022/03/11 05:12:43;;;;;;;15.40;8.50;;;-1.40;99.90;;;;;;4994464;28;20206;-38
2022/03/11 05:15:09;;;;;;;14.57;8.83;;;-1.30;99.90;;;;;;4994486;28;20282;-39
2022/03/11 05:17:36;;;;;;;15.17;8.70;;;-1.40;99.90;;;;;;4994468;28;20195;-39
2022/03/11 05:20:06;;;;;;;13.27;7.03;;;-1.60;99.90;;;;;;4994043;28;20221;-40
2022/03/11 05:22:32;;;;;;;11.77;7.30;;;-1.80;99.90;;;;;;5010786;28;20207;-40
2022/03/11 05:24:58;;;;;;;12.47;7.37;;;-1.80;99.90;;;;;;5010650;28;20179;-40
2022/03/11 05:27:24;;;;;;;13.30;7.63;;;-1.70;99.90;;;;;;5010464;28;20207;-40
2022/03/11 05:29:50;;;;;;;13.13;7.50;;;-1.90;99.90;;;;;;4994117;28;20186;-40
2022/03/11 05:32:16;;;;;;;11.90;7.10;;;-1.80;99.90;;;;;;4993947;28;20225;-40
2022/03/11 05:34:43;;;;;;;14.60;7.47;;;-1.80;99.90;;;;;;4996547;28;20184;-40
2022/03/11 05:37:10;;;;;;;12.67;7.10;;;-1.90;99.90;;;;;;5029353;28;20290;-39
2022/03/11 05:39:37;;;;;;;12.73;6.77;;;-2.00;99.90;;;;;;4995991;28;20179;-36
2022/03/11 05:42:03;;;;;;;15.93;9.73;;;-2.10;99.90;;;;;;5009511;28;20211;-37
2022/03/11 05:44:29;;;;;;;15.60;10.00;;;-2.00;99.90;;;;;;5009611;28;20206;-40
2022/03/11 05:46:55;;;;;;;12.70;7.53;;;-1.90;99.90;;;;;;5007647;28;20263;-40
2022/03/11 05:49:22;;;;;;;16.67;9.63;;;-1.90;99.90;;;;;;5006867;28;20184;-39
2022/03/11 05:51:48;;;;;;;13.83;8.20;;;-1.80;99.90;;;;;;4990596;28;20242;-40
2022/03/11 05:54:14;;;;;;;14.00;7.80;;;-1.80;99.90;;;;;;4990768;28;20199;-39
2022/03/11 05:56:40;;;;;;;13.20;8.23;;;-1.80;99.90;;;;;;5006946;28;20287;-36
2022/03/11 05:59:07;;;;;;;13.07;8.57;;;-1.80;99.90;;;;;;5006691;28;20184;-39
2022/03/11 06:01:33;;;;;;;15.67;8.60;;;-1.80;99.90;;;;;;5006917;28;20210;-38
2022/03/11 06:04:01;;;;;;;14.43;9.00;;;-1.80;99.90;;;;;;4990580;28;20207;-40
2022/03/11 06:06:30;;;;;;;16.60;9.80;;;-1.70;99.90;;;;;;4991715;28;20196;-40
2022/03/11 06:08:56;;;;;;;17.50;9.37;;;-1.70;99.90;;;;;;4974001;28;20227;-39
2022/03/11 06:11:23;;;;;;;21.17;10.73;;;-1.70;99.90;;;;;;5005611;28;20176;-40
2022/03/11 06:13:49;;;;;;;16.43;9.97;;;-1.70;99.90;;;;;;5009997;28;20254;-40
2022/03/11 06:16:15;;;;;;;17.50;10.80;;;-1.70;99.90;;;;;;5010013;28;20210;-40
2022/03/11 06:18:41;;;;;;;17.13;10.23;;;-1.70;99.90;;;;;;5009820;28;20175;-39
2022/03/11 06:21:15;;;;;;;16.43;10.17;;;-1.60;99.90;;;;;;5010935;28;20185;-40
2022/03/11 06:24:08;;;;;;;16.47;9.97;;;-1.60;99.90;;;;;;5012141;28;20199;-40
2022/03/11 06:26:34;;;;;;;17.20;9.60;;;-1.50;99.90;;;;;;5011475;28;20234;-40
2022/03/11 06:28:59;;;;;;;25.63;10.57;;;-1.40;99.90;;;;;;5009692;28;20249;-39
2022/03/11 06:31:25;;;;;;;14.57;8.27;;;-1.20;99.90;;;;;;5009737;28;20179;-36
2022/03/11 06:33:52;;;;;;;16.67;8.10;;;-1.10;99.90;;;;;;5010030;28;20666;-40
2022/03/11 06:36:18;;;;;;;14.67;7.77;;;-0.90;99.90;;;;;;5009708;28;20222;-39
2022/03/11 06:38:43;;;;;;;13.60;7.17;;;-0.80;99.90;;;;;;4993457;28;20187;-40
2022/03/11 06:41:09;;;;;;;12.03;7.23;;;-0.70;99.90;;;;;;5005475;28;20207;-40
2022/03/11 06:43:35;;;;;;;12.20;7.80;;;-0.80;99.90;;;;;;4996219;28;20207;-41
2022/03/11 06:46:01;;;;;;;12.33;7.77;;;-0.90;99.90;;;;;;4998782;28;20206;-39
2022/03/11 06:48:27;;;;;;;11.23;7.43;;;-1.00;99.90;;;;;;5013458;28;20183;-40
2022/03/11 06:50:53;;;;;;;15.23;8.07;;;-1.00;99.90;;;;;;4996894;28;20182;-39
2022/03/11 06:53:25;;;;;;;13.57;7.47;;;-0.90;99.90;;;;;;5013514;28;20190;-39
2022/03/11 06:55:50;;;;;;;14.13;7.67;;;-0.80;99.90;;;;;;4996883;28;20575;-39
2022/03/11 06:58:16;;;;;;;14.30;8.27;;;-0.70;99.90;;;;;;4997083;28;20183;-39
2022/03/11 07:00:42;;;;;;;14.27;8.20;;;-0.60;99.90;;;;;;5013195;28;20226;-39
2022/03/11 07:03:08;;;;;;;15.73;8.67;;;-0.70;99.90;;;;;;5013284;28;20300;-39
2022/03/11 07:05:33;;;;;;;14.07;8.53;;;-0.60;99.90;;;;;;5012882;28;20207;-38
2022/03/11 07:07:59;;;;;;;14.77;8.70;;;-0.60;99.90;;;;;;5013540;28;20182;-39
2022/03/11 07:10:25;;;;;;;13.60;8.23;;;-0.40;99.90;;;;;;4990046;28;20192;-40
2022/03/11 07:12:51;;;;;;;12.57;7.77;;;-0.30;99.90;;;;;;4979531;28;20192;-40
2022/03/11 07:15:17;;;;;;;17.00;8.73;;;-0.20;99.90;;;;;;4979179;28;20278;-40
2022/03/11 07:17:43;;;;;;;16.03;8.67;;;-0.10;99.90;;;;;;4976421;28;20176;-40
2022/03/11 07:20:09;;;;;;;16.83;8.73;;;0.10;99.90;;;;;;4977044;28;20188;-40
2022/03/11 07:22:35;;;;;;;11.80;7.77;;;0.20;99.90;;;;;;4993330;28;20214;-39
2022/03/11 07:25:02;;;;;;;12.80;8.70;;;0.40;99.90;;;;;;5009771;28;20178;-39
2022/03/11 07:27:28;;;;;;;18.60;8.80;;;0.50;99.90;;;;;;5009702;28;20196;-40
2022/03/11 07:29:56;;;;;;;17.70;8.37;;;0.60;99.90;;;;;;4976688;28;20177;-40
2022/03/11 07:32:23;;;;;;;17.80;8.63;;;0.70;99.90;;;;;;4976875;28;20183;-38
2022/03/11 07:34:49;;;;;;;15.67;9.63;;;0.90;99.90;;;;;;5009404;28;20217;-39
2022/03/11 07:37:14;;;;;;;15.70;9.00;;;1.00;99.90;;;;;;5009385;28;20302;-40
2022/03/11 07:39:41;;;;;;;14.57;8.27;;;1.20;99.90;;;;;;5012575;28;20190;-40
2022/03/11 07:42:08;;;;;;;17.40;9.00;;;1.30;99.90;;;;;;5012095;28;20256;-37
2022/03/11 07:44:35;;;;;;;14.47;8.67;;;1.50;99.90;;;;;;4988361;28;20183;-40
2022/03/11 07:47:01;;;;;;;13.97;9.20;;;1.70;99.90;;;;;;5016642;28;20204;-40
2022/03/11 07:49:30;;;;;;;13.20;9.07;;;1.80;99.90;;;;;;5019461;28;20680;-40
2022/03/11 07:51:56;;;;;;;14.80;9.47;;;2.00;99.90;;;;;;5017092;28;20179;-38
2022/03/11 07:54:22;;;;;;;17.60;10.00;;;2.20;99.90;;;;;;5018689;28;20228;-40
2022/03/11 07:56:48;;;;;;;17.00;9.77;;;2.30;99.90;;;;;;5017501;28;20231;-40
2022/03/11 07:59:13;;;;;;;13.93;9.10;;;2.50;99.90;;;;;;5018753;28;20182;-39
2022/03/11 08:01:39;;;;;;;15.10;8.77;;;2.60;99.90;;;;;;5002519;28;20180;-40
2022/03/11 08:04:05;;;;;;;15.57;8.60;;;2.70;99.90;;;;;;5000944;28;20187;-40
2022/03/11 08:06:31;;;;;;;14.73;9.00;;;2.90;99.90;;;;;;5019832;28;20204;-40
2022/03/11 08:08:57;;;;;;;14.07;9.40;;;3.00;99.90;;;;;;5000625;28;20206;-37
2022/03/11 08:11:23;;;;;;;14.67;9.87;;;3.10;99.90;;;;;;5011477;28;20177;-38
2022/03/11 08:13:49;;;;;;;15.60;10.00;;;3.30;99.90;;;;;;5026680;28;20183;-40
2022/03/11 08:16:16;;;;;;;17.63;10.10;;;3.40;99.90;;;;;;5027803;28;20205;-40
2022/03/11 08:18:43;;;;;;;12.63;9.00;;;3.40;99.90;;;;;;5027739;28;20204;-39
2022/03/11 08:21:12;;;;;;;14.37;9.53;;;3.50;99.90;;;;;;5011805;28;20180;-40
2022/03/11 08:23:42;;;;;;;13.73;9.00;;;3.60;99.90;;;;;;5026251;28;20275;-40
2022/03/11 08:26:12;;;;;;;18.30;10.23;;;3.70;99.90;;;;;;5028025;28;20213;-39
2022/03/11 08:28:38;;;;;;;17.67;10.13;;;3.80;99.90;;;;;;5010739;28;20206;-39
2022/03/11 08:31:03;;;;;;;16.83;10.13;;;3.90;99.90;;;;;;5026724;28;20195;-39
2022/03/11 08:33:30;;;;;;;14.73;10.23;;;4.10;99.90;;;;;;5027670;28;20225;-40
2022/03/11 08:35:57;;;;;;;13.83;9.43;;;4.10;99.90;;;;;;5027645;28;20214;-39
2022/03/11 08:38:23;;;;;;;18.13;11.10;;;4.20;99.90;;;;;;5011402;28;20274;-39
2022/03/11 08:40:49;;;;;;;20.13;10.80;;;4.40;99.90;;;;;;5010868;28;20282;-41
2022/03/11 08:43:15;;;;;;;18.40;11.67;;;4.50;99.90;;;;;;4994998;28;20211;-38
2022/03/11 08:45:42;;;;;;;19.10;10.90;;;4.60;99.90;;;;;;5043614;23;20301;-38
2022/03/11 08:48:09;;;;;;;22.27;11.80;;;4.80;99.90;;;;;;5030951;28;20234;-37
2022/03/11 08:50:35;;;;;;;18.50;11.73;;;4.90;99.90;;;;;;5030900;28;20206;-37
2022/03/11 08:53:01;;;;;;;21.67;12.30;;;5.00;99.90;;;;;;5014395;28;20191;-38
2022/03/11 08:55:27;;;;;;;19.73;11.90;;;5.10;99.90;;;;;;5010925;28;20203;-38
2022/03/11 08:57:53;;;;;;;19.07;12.10;;;5.30;99.90;;;;;;5028355;28;20210;-39
2022/03/11 09:00:22;;;;;;;17.00;11.10;;;5.50;99.90;;;;;;5027449;28;20225;-38
2022/03/11 09:02:48;;;;;;;15.23;11.10;;;5.70;99.90;;;;;;5010904;28;20297;-38
2022/03/11 09:05:17;;;;;;;19.77;12.00;;;5.90;99.60;;;;;;5005884;28;20223;-38
2022/03/11 09:07:43;;;;;;;18.00;12.10;;;5.90;99.10;;;;;;5025952;28;20183;-38
2022/03/11 09:10:10;;;;;;;19.30;12.23;;;5.90;99.30;;;;;;5027196;28;20183;-38
2022/03/11 09:12:37;;;;;;;17.90;11.73;;;6.00;98.60;;;;;;4996550;28;20180;-37
2022/03/11 09:15:05;;;;;;;19.30;12.73;;;6.00;99.20;;;;;;5013532;28;20695;-37
2022/03/11 09:17:30;;;;;;;17.90;12.83;;;6.20;98.60;;;;;;4999888;28;20256;-38
2022/03/11 09:19:58;;;;;;;21.90;14.10;;;6.40;98.90;;;;;;5011969;28;20188;-38
2022/03/11 09:22:27;;;;;;;22.33;12.60;;;6.30;99.40;;;;;;5011832;28;20214;-38
2022/03/11 09:24:52;;;;;;;18.37;12.93;;;6.50;98.40;;;;;;5012331;28;20200;-38
2022/03/11 09:27:19;;;;;;;20.67;12.70;;;6.60;97.80;;;;;;5011564;28;20174;-38
2022/03/11 09:29:45;;;;;;;22.87;13.70;;;6.80;98.00;;;;;;5012209;28;20188;-38
2022/03/11 09:32:10;;;;;;;18.63;12.57;;;6.90;97.80;;;;;;5012691;28;20291;-38
2022/03/11 09:34:37;;;;;;;18.03;13.67;;;7.20;97.70;;;;;;5012610;28;20200;-38
2022/03/11 09:37:05;;;;;;;19.33;12.70;;;7.30;98.00;;;;;;5010355;28;20652;-38
2022/03/11 09:39:31;;;;;;;20.23;13.27;;;7.50;97.60;;;;;;5010261;28;20192;-39
2022/03/11 09:41:57;;;;;;;17.27;12.63;;;7.70;97.60;;;;;;5000443;28;20183;-38
2022/03/11 09:44:24;;;;;;;19.43;12.83;;;7.90;97.40;;;;;;4999796;28;20181;-39
2022/03/11 09:46:58;;;;;;;18.43;12.87;;;7.80;95.90;;;;;;4999201;28;20193;-38
2022/03/11 09:49:24;;;;;;;22.50;12.37;;;7.90;96.10;;;;;;5009396;28;20185;-38
2022/03/11 09:51:51;;;;;;;18.47;12.63;;;8.10;96.10;;;;;;5002374;28;20647;-38
2022/03/11 09:54:17;;;;;;;18.20;12.87;;;8.30;96.10;;;;;;5003502;28;20180;-38
2022/03/11 09:56:44;;;;;;;19.53;13.50;;;8.50;96.10;;;;;;5016144;28;20198;-38
2022/03/11 09:59:12;;;;;;;19.97;13.63;;;8.50;96.00;;;;;;5008966;28;20182;-39
2022/03/11 10:01:42;;;;;;;16.93;13.23;;;8.70;95.70;;;;;;5014373;28;20187;-39
2022/03/11 10:04:09;;;;;;;18.60;12.87;;;8.90;95.50;;;;;;4995999;28;20230;-38
2022/03/11 10:06:44;;;;;;;20.53;12.60;;;8.90;94.50;;;;;;4999200;28;20198;-38
2022/03/11 10:09:19;;;;;;;19.90;12.40;;;8.90;94.70;;;;;;4997323;28;20236;-38
2022/03/11 10:11:49;;;;;;;17.23;11.70;;;9.00;95.00;;;;;;5001728;28;20194;-38
2022/03/11 10:14:16;;;;;;;17.33;12.63;;;9.20;94.80;;;;;;4992922;28;20175;-38
2022/03/11 10:16:44;;;;;;;16.33;12.27;;;9.30;95.00;;;;;;5001414;28;20215;-39
2022/03/11 10:19:15;;;;;;;19.37;12.40;;;9.50;94.70;;;;;;4993877;28;20183;-40
2022/03/11 10:21:43;;;;;;;23.93;12.77;;;9.70;94.20;;;;;;4992318;28;20271;-40
2022/03/11 10:24:21;;;;;;;19.30;13.23;;;9.70;94.10;;;;;;5008585;28;20219;-40
2022/03/11 10:26:53;;;;;;;18.73;11.93;;;9.70;93.80;;;;;;5005125;28;20182;-39
2022/03/11 10:29:27;;;;;;;20.90;12.83;;;9.40;94.00;;;;;;5004121;28;20172;-38
2022/03/11 10:32:03;;;;;;;17.33;12.17;;;9.60;94.10;;;;;;5025089;28;20179;-38
2022/03/11 10:34:44;;;;;;;17.07;12.97;;;9.80;93.80;;;;;;4998946;28;20203;-39
2022/03/11 10:37:14;;;;;;;17.97;13.03;;;10.00;94.00;;;;;;5006076;28;20650;-38
2022/03/11 10:39:43;;;;;;;17.37;12.27;;;10.20;93.60;;;;;;4996850;28;20203;-38
2022/03/11 10:42:19;;;;;;;21.77;12.90;;;10.40;93.10;;;;;;5013821;28;20250;-41
2022/03/11 10:45:09;;;;;;;18.90;12.00;;;10.40;92.90;;;;;;5015551;28;20207;-39
2022/03/11 10:47:46;;;;;;;17.67;12.27;;;10.30;92.70;;;;;;5000511;28;20194;-38
2022/03/11 10:50:15;;;;;;;17.90;11.67;;;10.40;92.40;;;;;;5000617;28;20279;-37
2022/03/11 10:52:44;;;;;;;18.73;12.20;;;10.60;92.60;;;;;;5014626;28;20187;-36
2022/03/11 10:55:31;;;;;;;17.83;12.13;;;10.60;92.20;;;;;;4998162;28;20214;-37
2022/03/11 10:58:06;;;;;;;18.00;11.80;;;10.50;91.60;;;;;;4995970;28;20207;-36
2022/03/11 11:00:37;;;;;;;16.37;11.97;;;10.70;92.40;;;;;;5012845;28;20203;-36
2022/03/11 11:03:05;;;;;;;19.10;11.50;;;10.90;92.20;;;;;;5023915;28;20218;-35
2022/03/11 11:05:32;;;;;;;18.30;11.57;;;10.90;90.90;;;;;;5022210;28;20195;-36
2022/03/11 11:08:01;;;;;;;17.93;11.53;;;11.00;91.60;;;;;;5017222;28;20219;-36
2022/03/11 11:10:30;;;;;;;16.17;11.00;;;11.20;90.90;;;;;;4987896;28;20180;-36
2022/03/11 11:12:57;;;;;;;18.23;11.20;;;11.40;90.90;;;;;;5015273;28;20730;-38
2022/03/11 11:15:24;;;;;;;16.30;11.03;;;11.50;90.90;;;;;;5022317;28;20204;-38
2022/03/11 11:17:51;;;;;;;15.50;11.13;;;11.70;90.40;;;;;;5014793;28;20186;-39
2022/03/11 11:20:23;;;;;;;15.50;11.13;;;11.70;90.30;;;;;;5021662;28;20177;-41
2022/03/11 11:22:52;;;;;;;14.63;11.07;;;11.90;90.20;;;;;;5025504;28;20205;-39
2022/03/11 11:25:20;;;;;;;13.13;10.30;;;12.00;89.70;;;;;;4986284;28;20192;-40
2022/03/11 11:27:47;;;;;;;14.20;10.90;;;12.20;89.90;;;;;;5000259;28;20188;-38
2022/03/11 11:30:21;;;;;;;15.30;10.80;;;12.30;89.20;;;;;;5008044;28;20268;-38
2022/03/11 11:32:52;;;;;;;15.20;11.33;;;12.50;88.50;;;;;;4992309;28;20210;-39
2022/03/11 11:35:25;;;;;;;14.70;11.07;;;12.60;87.20;;;;;;5006893;28;20296;-41
2022/03/11 11:37:52;;;;;;;15.00;11.57;;;12.60;90.20;;;;;;4999309;28;20635;-40
2022/03/11 11:40:24;;;;;;;20.23;11.77;;;12.80;89.40;;;;;;5018492;28;20176;-39
2022/03/11 11:43:29;;;;;;;15.10;10.73;;;12.90;87.90;;;;;;5000573;28;20237;-40
2022/03/11 11:45:58;;;;;;;14.87;11.00;;;13.00;86.40;;;;;;5003273;28;20207;-39
2022/03/11 11:48:42;;;;;;;19.43;11.93;;;13.10;86.80;;;;;;5001862;28;20186;-39
2022/03/11 11:51:11;;;;;;;17.50;11.30;;;13.30;86.90;;;;;;5002142;28;20183;-38
2022/03/11 11:53:42;;;;;;;16.53;11.10;;;13.00;85.80;;;;;;5000904;28;20184;-39
2022/03/11 11:56:33;;;;;;;14.53;11.07;;;12.90;87.00;;;;;;5008149;28;20577;-40
2022/03/11 11:59:01;;;;;;;15.83;10.80;;;13.10;87.30;;;;;;5004111;28;20178;-40
2022/03/11 12:01:46;;;;;;;16.70;12.13;;;13.10;85.80;;;;;;5014094;28;20194;-40
2022/03/11 12:04:33;;;;;;;13.57;10.50;;;13.40;86.40;;;;;;5005844;28;20206;-40
2022/03/11 12:07:17;;;;;;;15.30;10.87;;;13.50;85.40;;;;;;5028172;28;20189;-39
2022/03/11 12:09:58;;;;;;;16.60;11.53;;;13.80;86.30;;;;;;5002337;28;20187;-38
2022/03/11 12:12:34;;;;;;;17.90;10.10;;;14.10;85.30;;;;;;5018957;28;20190;-40
2022/03/11 12:15:00;;;;;;;15.23;10.57;;;14.40;84.60;;;;;;5018362;28;20279;-38
2022/03/11 12:17:41;;;;;;;13.80;10.37;;;14.70;83.80;;;;;;5005770;28;20183;-39
2022/03/11 12:20:26;;;;;;;16.17;11.20;;;14.90;84.30;;;;;;5003644;28;20184;-40
2022/03/11 12:22:53;;;;;;;16.03;11.27;;;15.10;83.80;;;;;;4993744;28;20218;-39
2022/03/11 12:25:23;;;;;;;14.50;10.83;;;15.30;83.30;;;;;;4992456;28;20203;-40
2022/03/11 12:28:01;;;;;;;14.23;10.73;;;15.30;82.00;;;;;;4992063;28;20176;-39
2022/03/11 12:30:28;;;;;;;16.30;11.33;;;15.50;82.20;;;;;;4992072;28;20364;-42
2022/03/11 12:32:54;;;;;;;13.10;10.83;;;15.70;82.30;;;;;;4992104;28;20188;-41
2022/03/11 12:35:22;;;;;;;14.33;10.80;;;15.60;80.90;;;;;;5008444;28;20206;-42
2022/03/11 12:37:48;;;;;;;16.23;11.27;;;15.60;79.80;;;;;;4991494;28;20184;-41
2022/03/11 12:40:14;;;;;;;13.50;10.50;;;15.50;81.20;;;;;;4997336;28;20190;-40